sensor_id;sensor_type;location;lat;lon;timestamp;P1;durP1;ratioP1;P2;durP2;ratioP2
74543;SDS011;63016;55.030;38.710;2023-06-22T00:00:50;13.13;;;5.28;;
74543;SDS011;63016;55.030;38.710;2023-06-22T00:03:20;9.48;;;4.70;;
74543;SDS011;63016;55.030;38.710;2023-06-22T00:05:46;8.60;;;4.88;;
74543;SDS011;63016;55.030;38.710;2023-06-22T00:08:12;10.43;;;5.38;;
74543;SDS011;63016;55.030;38.710;2023-06-22T00:10:38;10.40;;;5.82;;
74543;SDS011;63016;55.030;38.710;2023-06-22T00:13:05;10.68;;;6.18;;
74543;SDS011;63016;55.030;38.710;2023-06-22T00:15:31;9.73;;;5.18;;
74543;SDS011;63016;55.030;38.710;2023-06-22T00:17:57;11.13;;;5.03;;
74543;SDS011;63016;55.030;38.710;2023-06-22T00:20:23;11.00;;;5.15;;
74543;SDS011;63016;55.030;38.710;2023-06-22T00:22:53;7.68;;;4.43;;
74543;SDS011;63016;55.030;38.710;2023-06-22T00:25:19;9.85;;;4.55;;
74543;SDS011;63016;55.030;38.710;2023-06-22T00:27:44;9.02;;;4.93;;
74543;SDS011;63016;55.030;38.710;2023-06-22T00:30:10;11.43;;;4.93;;
74543;SDS011;63016;55.030;38.710;2023-06-22T00:32:35;9.25;;;4.65;;
74543;SDS011;63016;55.030;38.710;2023-06-22T00:35:01;9.75;;;4.90;;
74543;SDS011;63016;55.030;38.710;2023-06-22T00:37:27;9.82;;;4.82;;
74543;SDS011;63016;55.030;38.710;2023-06-22T00:39:54;7.45;;;4.40;;
74543;SDS011;63016;55.030;38.710;2023-06-22T00:42:20;8.55;;;4.60;;
74543;SDS011;63016;55.030;38.710;2023-06-22T00:44:46;8.48;;;4.47;;
74543;SDS011;63016;55.030;38.710;2023-06-22T00:47:13;10.15;;;4.90;;
74543;SDS011;63016;55.030;38.710;2023-06-22T00:49:41;8.32;;;4.75;;
74543;SDS011;63016;55.030;38.710;2023-06-22T00:52:07;10.43;;;4.80;;
74543;SDS011;63016;55.030;38.710;2023-06-22T00:54:37;8.57;;;4.38;;
74543;SDS011;63016;55.030;38.710;2023-06-22T00:57:02;8.18;;;4.75;;
74543;SDS011;63016;55.030;38.710;2023-06-22T00:59:28;7.43;;;4.45;;
74543;SDS011;63016;55.030;38.710;2023-06-22T01:01:54;8.70;;;4.65;;
74543;SDS011;63016;55.030;38.710;2023-06-22T01:04:26;14.23;;;5.10;;
74543;SDS011;63016;55.030;38.710;2023-06-22T01:10:07;7.80;;;4.45;;
74543;SDS011;63016;55.030;38.710;2023-06-22T01:12:34;8.23;;;4.40;;
74543;SDS011;63016;55.030;38.710;2023-06-22T01:15:13;8.07;;;4.93;;
74543;SDS011;63016;55.030;38.710;2023-06-22T01:17:43;10.52;;;4.53;;
74543;SDS011;63016;55.030;38.710;2023-06-22T01:20:09;10.18;;;5.20;;
74543;SDS011;63016;55.030;38.710;2023-06-22T01:25:48;7.13;;;4.07;;
74543;SDS011;63016;55.030;38.710;2023-06-22T01:31:19;9.43;;;4.75;;
74543;SDS011;63016;55.030;38.710;2023-06-22T01:33:49;6.82;;;3.92;;
74543;SDS011;63016;55.030;38.710;2023-06-22T01:36:17;7.63;;;4.05;;
74543;SDS011;63016;55.030;38.710;2023-06-22T01:38:44;7.70;;;4.40;;
74543;SDS011;63016;55.030;38.710;2023-06-22T01:41:11;7.00;;;4.25;;
74543;SDS011;63016;55.030;38.710;2023-06-22T01:43:37;7.15;;;4.07;;
74543;SDS011;63016;55.030;38.710;2023-06-22T01:46:03;9.30;;;4.47;;
74543;SDS011;63016;55.030;38.710;2023-06-22T01:48:29;7.40;;;4.70;;
74543;SDS011;63016;55.030;38.710;2023-06-22T01:50:56;8.80;;;4.47;;
74543;SDS011;63016;55.030;38.710;2023-06-22T01:53:23;7.32;;;4.53;;
74543;SDS011;63016;55.030;38.710;2023-06-22T01:55:49;7.45;;;4.40;;
74543;SDS011;63016;55.030;38.710;2023-06-22T01:58:15;7.57;;;4.32;;
74543;SDS011;63016;55.030;38.710;2023-06-22T02:00:44;8.15;;;4.72;;
74543;SDS011;63016;55.030;38.710;2023-06-22T02:03:19;7.15;;;4.25;;
74543;SDS011;63016;55.030;38.710;2023-06-22T02:06:06;9.13;;;4.57;;
74543;SDS011;63016;55.030;38.710;2023-06-22T02:08:40;7.47;;;4.95;;
74543;SDS011;63016;55.030;38.710;2023-06-22T02:11:11;8.38;;;4.95;;
74543;SDS011;63016;55.030;38.710;2023-06-22T02:13:40;8.50;;;4.90;;
74543;SDS011;63016;55.030;38.710;2023-06-22T02:16:08;8.90;;;5.10;;
74543;SDS011;63016;55.030;38.710;2023-06-22T02:18:36;10.55;;;5.18;;
74543;SDS011;63016;55.030;38.710;2023-06-22T02:21:02;10.90;;;5.40;;
74543;SDS011;63016;55.030;38.710;2023-06-22T02:23:28;7.82;;;5.28;;
74543;SDS011;63016;55.030;38.710;2023-06-22T02:25:54;10.90;;;5.50;;
74543;SDS011;63016;55.030;38.710;2023-06-22T02:28:19;12.75;;;6.07;;
74543;SDS011;63016;55.030;38.710;2023-06-22T02:30:45;11.50;;;5.43;;
74543;SDS011;63016;55.030;38.710;2023-06-22T02:33:10;10.50;;;5.30;;
74543;SDS011;63016;55.030;38.710;2023-06-22T02:35:35;10.23;;;5.57;;
74543;SDS011;63016;55.030;38.710;2023-06-22T02:38:02;9.15;;;5.63;;
74543;SDS011;63016;55.030;38.710;2023-06-22T02:40:30;9.15;;;5.10;;
74543;SDS011;63016;55.030;38.710;2023-06-22T02:42:57;7.88;;;5.07;;
74543;SDS011;63016;55.030;38.710;2023-06-22T02:45:27;7.95;;;4.82;;
74543;SDS011;63016;55.030;38.710;2023-06-22T02:47:53;10.15;;;5.53;;
74543;SDS011;63016;55.030;38.710;2023-06-22T02:50:19;9.85;;;5.22;;
74543;SDS011;63016;55.030;38.710;2023-06-22T02:52:45;10.30;;;6.10;;
74543;SDS011;63016;55.030;38.710;2023-06-22T02:55:11;13.32;;;5.65;;
74543;SDS011;63016;55.030;38.710;2023-06-22T02:57:37;9.45;;;5.40;;
74543;SDS011;63016;55.030;38.710;2023-06-22T03:00:03;14.13;;;5.45;;
74543;SDS011;63016;55.030;38.710;2023-06-22T03:02:42;11.20;;;5.25;;
74543;SDS011;63016;55.030;38.710;2023-06-22T03:05:11;10.52;;;5.63;;
74543;SDS011;63016;55.030;38.710;2023-06-22T03:07:41;10.80;;;5.55;;
74543;SDS011;63016;55.030;38.710;2023-06-22T03:10:08;9.25;;;5.55;;
74543;SDS011;63016;55.030;38.710;2023-06-22T03:12:35;13.55;;;5.97;;
74543;SDS011;63016;55.030;38.710;2023-06-22T03:15:01;10.23;;;5.75;;
74543;SDS011;63016;55.030;38.710;2023-06-22T03:17:26;11.93;;;6.28;;
74543;SDS011;63016;55.030;38.710;2023-06-22T03:19:52;9.07;;;5.50;;
74543;SDS011;63016;55.030;38.710;2023-06-22T03:22:17;13.88;;;6.03;;
74543;SDS011;63016;55.030;38.710;2023-06-22T03:24:43;13.60;;;5.70;;
74543;SDS011;63016;55.030;38.710;2023-06-22T03:27:08;8.82;;;4.93;;
74543;SDS011;63016;55.030;38.710;2023-06-22T03:29:33;11.13;;;5.65;;
74543;SDS011;63016;55.030;38.710;2023-06-22T03:31:59;10.38;;;5.70;;
74543;SDS011;63016;55.030;38.710;2023-06-22T03:34:24;10.20;;;5.70;;
74543;SDS011;63016;55.030;38.710;2023-06-22T03:36:50;10.55;;;6.57;;
74543;SDS011;63016;55.030;38.710;2023-06-22T03:39:16;9.48;;;5.65;;
74543;SDS011;63016;55.030;38.710;2023-06-22T03:41:41;13.70;;;7.00;;
74543;SDS011;63016;55.030;38.710;2023-06-22T03:44:07;11.88;;;6.57;;
74543;SDS011;63016;55.030;38.710;2023-06-22T03:46:35;10.05;;;6.32;;
74543;SDS011;63016;55.030;38.710;2023-06-22T03:49:01;13.13;;;6.82;;
74543;SDS011;63016;55.030;38.710;2023-06-22T03:51:28;9.23;;;6.07;;
74543;SDS011;63016;55.030;38.710;2023-06-22T03:53:53;10.35;;;6.28;;
74543;SDS011;63016;55.030;38.710;2023-06-22T03:56:19;11.68;;;5.97;;
74543;SDS011;63016;55.030;38.710;2023-06-22T03:58:45;11.50;;;5.95;;
74543;SDS011;63016;55.030;38.710;2023-06-22T04:01:11;9.50;;;5.75;;
74543;SDS011;63016;55.030;38.710;2023-06-22T04:03:37;8.95;;;5.70;;
74543;SDS011;63016;55.030;38.710;2023-06-22T04:06:03;11.18;;;6.18;;
74543;SDS011;63016;55.030;38.710;2023-06-22T04:08:28;9.75;;;5.82;;
74543;SDS011;63016;55.030;38.710;2023-06-22T04:10:54;12.10;;;5.75;;
74543;SDS011;63016;55.030;38.710;2023-06-22T04:13:20;10.30;;;5.18;;
74543;SDS011;63016;55.030;38.710;2023-06-22T04:15:45;9.80;;;5.72;;
74543;SDS011;63016;55.030;38.710;2023-06-22T04:18:10;10.23;;;5.07;;
74543;SDS011;63016;55.030;38.710;2023-06-22T04:20:36;7.72;;;4.90;;
74543;SDS011;63016;55.030;38.710;2023-06-22T04:23:01;7.20;;;4.18;;
74543;SDS011;63016;55.030;38.710;2023-06-22T04:25:27;9.68;;;4.25;;
74543;SDS011;63016;55.030;38.710;2023-06-22T04:27:53;6.50;;;3.70;;
74543;SDS011;63016;55.030;38.710;2023-06-22T04:30:37;9.05;;;3.88;;
74543;SDS011;63016;55.030;38.710;2023-06-22T04:33:11;9.43;;;3.88;;
74543;SDS011;63016;55.030;38.710;2023-06-22T04:35:40;6.63;;;4.25;;
74543;SDS011;63016;55.030;38.710;2023-06-22T04:38:09;8.25;;;4.47;;
74543;SDS011;63016;55.030;38.710;2023-06-22T04:40:35;7.65;;;4.68;;
74543;SDS011;63016;55.030;38.710;2023-06-22T04:43:01;10.38;;;4.65;;
74543;SDS011;63016;55.030;38.710;2023-06-22T04:45:27;6.65;;;4.05;;
74543;SDS011;63016;55.030;38.710;2023-06-22T04:47:54;10.27;;;4.68;;
74543;SDS011;63016;55.030;38.710;2023-06-22T04:50:19;9.50;;;4.22;;
74543;SDS011;63016;55.030;38.710;2023-06-22T04:52:47;7.13;;;4.20;;
74543;SDS011;63016;55.030;38.710;2023-06-22T04:55:13;11.00;;;3.95;;
74543;SDS011;63016;55.030;38.710;2023-06-22T04:57:43;8.75;;;4.20;;
74543;SDS011;63016;55.030;38.710;2023-06-22T05:00:22;7.40;;;3.80;;
74543;SDS011;63016;55.030;38.710;2023-06-22T05:02:48;9.10;;;4.18;;
74543;SDS011;63016;55.030;38.710;2023-06-22T05:05:14;17.35;;;4.63;;
74543;SDS011;63016;55.030;38.710;2023-06-22T05:07:43;13.45;;;4.40;;
74543;SDS011;63016;55.030;38.710;2023-06-22T05:10:10;9.80;;;3.90;;
74543;SDS011;63016;55.030;38.710;2023-06-22T05:12:37;8.40;;;3.67;;
74543;SDS011;63016;55.030;38.710;2023-06-22T05:15:03;5.95;;;3.15;;
74543;SDS011;63016;55.030;38.710;2023-06-22T05:17:30;6.07;;;3.72;;
74543;SDS011;63016;55.030;38.710;2023-06-22T05:19:55;5.40;;;3.83;;
74543;SDS011;63016;55.030;38.710;2023-06-22T05:22:21;6.75;;;3.92;;
74543;SDS011;63016;55.030;38.710;2023-06-22T05:24:46;10.02;;;3.65;;
74543;SDS011;63016;55.030;38.710;2023-06-22T05:27:12;7.63;;;3.20;;
74543;SDS011;63016;55.030;38.710;2023-06-22T05:29:38;7.68;;;3.35;;
74543;SDS011;63016;55.030;38.710;2023-06-22T05:32:04;5.78;;;3.40;;
74543;SDS011;63016;55.030;38.710;2023-06-22T05:34:30;7.57;;;4.10;;
74543;SDS011;63016;55.030;38.710;2023-06-22T05:36:55;5.35;;;3.72;;
74543;SDS011;63016;55.030;38.710;2023-06-22T05:39:23;7.10;;;3.00;;
74543;SDS011;63016;55.030;38.710;2023-06-22T05:41:49;5.57;;;3.00;;
74543;SDS011;63016;55.030;38.710;2023-06-22T05:44:15;3.85;;;3.15;;
74543;SDS011;63016;55.030;38.710;2023-06-22T05:46:41;5.70;;;3.10;;
74543;SDS011;63016;55.030;38.710;2023-06-22T05:49:11;4.13;;;2.50;;
74543;SDS011;63016;55.030;38.710;2023-06-22T05:51:38;5.90;;;3.00;;
74543;SDS011;63016;55.030;38.710;2023-06-22T05:54:03;7.05;;;2.60;;
74543;SDS011;63016;55.030;38.710;2023-06-22T05:56:29;8.07;;;2.05;;
74543;SDS011;63016;55.030;38.710;2023-06-22T05:58:54;4.75;;;2.83;;
74543;SDS011;63016;55.030;38.710;2023-06-22T06:01:20;5.78;;;2.75;;
74543;SDS011;63016;55.030;38.710;2023-06-22T06:03:46;8.35;;;3.08;;
74543;SDS011;63016;55.030;38.710;2023-06-22T06:06:11;4.40;;;2.70;;
74543;SDS011;63016;55.030;38.710;2023-06-22T06:08:38;5.45;;;2.70;;
74543;SDS011;63016;55.030;38.710;2023-06-22T06:11:03;5.47;;;2.55;;
74543;SDS011;63016;55.030;38.710;2023-06-22T06:13:29;3.97;;;2.38;;
74543;SDS011;63016;55.030;38.710;2023-06-22T06:15:54;7.22;;;2.83;;
74543;SDS011;63016;55.030;38.710;2023-06-22T06:18:21;3.85;;;2.83;;
74543;SDS011;63016;55.030;38.710;2023-06-22T06:20:46;2.83;;;2.17;;
74543;SDS011;63016;55.030;38.710;2023-06-22T06:23:12;3.55;;;2.60;;
74543;SDS011;63016;55.030;38.710;2023-06-22T06:25:56;4.57;;;2.65;;
74543;SDS011;63016;55.030;38.710;2023-06-22T06:28:41;6.93;;;3.00;;
74543;SDS011;63016;55.030;38.710;2023-06-22T06:34:10;8.98;;;3.92;;
74543;SDS011;63016;55.030;38.710;2023-06-22T06:36:36;8.40;;;2.50;;
74543;SDS011;63016;55.030;38.710;2023-06-22T06:41:46;3.38;;;2.50;;
74543;SDS011;63016;55.030;38.710;2023-06-22T06:44:12;4.35;;;2.13;;
74543;SDS011;63016;55.030;38.710;2023-06-22T06:46:37;5.65;;;2.05;;
74543;SDS011;63016;55.030;38.710;2023-06-22T06:49:03;4.25;;;2.10;;
74543;SDS011;63016;55.030;38.710;2023-06-22T06:51:29;5.07;;;2.30;;
74543;SDS011;63016;55.030;38.710;2023-06-22T06:53:54;7.45;;;2.70;;
74543;SDS011;63016;55.030;38.710;2023-06-22T06:56:20;5.60;;;2.33;;
74543;SDS011;63016;55.030;38.710;2023-06-22T06:58:45;3.67;;;2.42;;
74543;SDS011;63016;55.030;38.710;2023-06-22T07:01:11;3.75;;;2.17;;
74543;SDS011;63016;55.030;38.710;2023-06-22T07:03:37;7.18;;;2.30;;
74543;SDS011;63016;55.030;38.710;2023-06-22T07:06:40;5.10;;;2.22;;
74543;SDS011;63016;55.030;38.710;2023-06-22T07:09:07;4.88;;;2.50;;
74543;SDS011;63016;55.030;38.710;2023-06-22T07:11:51;5.40;;;2.30;;
74543;SDS011;63016;55.030;38.710;2023-06-22T07:14:16;4.18;;;2.40;;
74543;SDS011;63016;55.030;38.710;2023-06-22T07:16:42;3.17;;;2.53;;
74543;SDS011;63016;55.030;38.710;2023-06-22T07:19:07;6.65;;;2.42;;
74543;SDS011;63016;55.030;38.710;2023-06-22T07:21:33;6.03;;;1.95;;
74543;SDS011;63016;55.030;38.710;2023-06-22T07:23:58;4.90;;;2.15;;
74543;SDS011;63016;55.030;38.710;2023-06-22T07:26:23;3.95;;;2.05;;
74543;SDS011;63016;55.030;38.710;2023-06-22T07:28:49;3.22;;;1.63;;
74543;SDS011;63016;55.030;38.710;2023-06-22T07:31:15;4.60;;;2.10;;
74543;SDS011;63016;55.030;38.710;2023-06-22T07:33:41;2.47;;;1.90;;
74543;SDS011;63016;55.030;38.710;2023-06-22T07:38:51;6.35;;;2.00;;
74543;SDS011;63016;55.030;38.710;2023-06-22T07:41:16;2.20;;;1.60;;
74543;SDS011;63016;55.030;38.710;2023-06-22T07:43:41;3.90;;;2.05;;
74543;SDS011;63016;55.030;38.710;2023-06-22T07:46:07;3.05;;;1.85;;
74543;SDS011;63016;55.030;38.710;2023-06-22T07:48:33;4.38;;;2.10;;
74543;SDS011;63016;55.030;38.710;2023-06-22T07:51:02;3.28;;;2.13;;
74543;SDS011;63016;55.030;38.710;2023-06-22T07:53:27;2.50;;;1.88;;
74543;SDS011;63016;55.030;38.710;2023-06-22T07:55:53;4.95;;;1.83;;
74543;SDS011;63016;55.030;38.710;2023-06-22T07:58:19;2.85;;;2.30;;
74543;SDS011;63016;55.030;38.710;2023-06-22T08:00:45;3.55;;;2.30;;
74543;SDS011;63016;55.030;38.710;2023-06-22T08:03:13;4.88;;;1.90;;
74543;SDS011;63016;55.030;38.710;2023-06-22T08:05:39;2.95;;;1.90;;
74543;SDS011;63016;55.030;38.710;2023-06-22T08:08:04;2.50;;;2.28;;
74543;SDS011;63016;55.030;38.710;2023-06-22T08:10:30;3.75;;;2.20;;
74543;SDS011;63016;55.030;38.710;2023-06-22T08:12:55;3.53;;;2.10;;
74543;SDS011;63016;55.030;38.710;2023-06-22T08:15:21;5.00;;;2.25;;
74543;SDS011;63016;55.030;38.710;2023-06-22T08:17:47;3.25;;;2.00;;
74543;SDS011;63016;55.030;38.710;2023-06-22T08:20:50;2.83;;;2.00;;
74543;SDS011;63016;55.030;38.710;2023-06-22T08:23:18;5.10;;;2.22;;
74543;SDS011;63016;55.030;38.710;2023-06-22T08:25:45;4.15;;;1.85;;
74543;SDS011;63016;55.030;38.710;2023-06-22T08:28:10;3.38;;;2.22;;
74543;SDS011;63016;55.030;38.710;2023-06-22T08:30:36;5.47;;;2.20;;
74543;SDS011;63016;55.030;38.710;2023-06-22T08:33:01;3.58;;;2.08;;
74543;SDS011;63016;55.030;38.710;2023-06-22T08:35:27;2.25;;;1.88;;
74543;SDS011;63016;55.030;38.710;2023-06-22T08:37:54;2.60;;;2.30;;
74543;SDS011;63016;55.030;38.710;2023-06-22T08:43:06;4.95;;;2.22;;
74543;SDS011;63016;55.030;38.710;2023-06-22T08:48:15;6.65;;;2.25;;
74543;SDS011;63016;55.030;38.710;2023-06-22T08:50:41;5.22;;;2.65;;
74543;SDS011;63016;55.030;38.710;2023-06-22T08:53:06;9.70;;;3.13;;
74543;SDS011;63016;55.030;38.710;2023-06-22T08:55:33;8.10;;;2.92;;
74543;SDS011;63016;55.030;38.710;2023-06-22T08:57:58;4.00;;;1.90;;
74543;SDS011;63016;55.030;38.710;2023-06-22T09:00:42;4.80;;;2.40;;
74543;SDS011;63016;55.030;38.710;2023-06-22T09:03:08;3.00;;;2.05;;
74543;SDS011;63016;55.030;38.710;2023-06-22T09:05:33;4.38;;;2.47;;
74543;SDS011;63016;55.030;38.710;2023-06-22T09:07:59;2.90;;;2.30;;
74543;SDS011;63016;55.030;38.710;2023-06-22T09:10:25;4.28;;;2.17;;
74543;SDS011;63016;55.030;38.710;2023-06-22T09:13:09;2.60;;;1.98;;
74543;SDS011;63016;55.030;38.710;2023-06-22T09:16:12;3.00;;;2.40;;
74543;SDS011;63016;55.030;38.710;2023-06-22T09:18:38;2.75;;;2.10;;
74543;SDS011;63016;55.030;38.710;2023-06-22T09:21:03;3.53;;;2.30;;
74543;SDS011;63016;55.030;38.710;2023-06-22T09:23:47;4.43;;;2.17;;
74543;SDS011;63016;55.030;38.710;2023-06-22T09:26:16;3.92;;;2.40;;
74543;SDS011;63016;55.030;38.710;2023-06-22T09:28:42;3.90;;;1.98;;
74543;SDS011;63016;55.030;38.710;2023-06-22T09:31:08;7.60;;;2.10;;
74543;SDS011;63016;55.030;38.710;2023-06-22T09:33:33;6.20;;;2.15;;
74543;SDS011;63016;55.030;38.710;2023-06-22T09:35:59;4.63;;;2.25;;
74543;SDS011;63016;55.030;38.710;2023-06-22T09:38:43;3.55;;;2.22;;
74543;SDS011;63016;55.030;38.710;2023-06-22T09:41:08;2.67;;;1.85;;
74543;SDS011;63016;55.030;38.710;2023-06-22T09:43:33;4.18;;;2.13;;
74543;SDS011;63016;55.030;38.710;2023-06-22T09:46:01;2.35;;;2.00;;
74543;SDS011;63016;55.030;38.710;2023-06-22T09:48:27;6.70;;;2.60;;
74543;SDS011;63016;55.030;38.710;2023-06-22T09:50:54;2.28;;;2.08;;
74543;SDS011;63016;55.030;38.710;2023-06-22T09:53:19;3.08;;;2.13;;
74543;SDS011;63016;55.030;38.710;2023-06-22T09:55:46;4.28;;;2.45;;
74543;SDS011;63016;55.030;38.710;2023-06-22T09:58:11;4.63;;;2.45;;
74543;SDS011;63016;55.030;38.710;2023-06-22T10:00:37;3.45;;;2.10;;
74543;SDS011;63016;55.030;38.710;2023-06-22T10:03:02;5.03;;;2.40;;
74543;SDS011;63016;55.030;38.710;2023-06-22T10:05:28;2.88;;;2.30;;
74543;SDS011;63016;55.030;38.710;2023-06-22T10:07:53;3.28;;;2.25;;
74543;SDS011;63016;55.030;38.710;2023-06-22T10:10:19;3.03;;;2.30;;
74543;SDS011;63016;55.030;38.710;2023-06-22T10:12:48;5.88;;;2.30;;
74543;SDS011;63016;55.030;38.710;2023-06-22T10:15:20;3.15;;;1.95;;
74543;SDS011;63016;55.030;38.710;2023-06-22T10:17:46;3.60;;;2.22;;
74543;SDS011;63016;55.030;38.710;2023-06-22T10:20:12;3.70;;;2.20;;
74543;SDS011;63016;55.030;38.710;2023-06-22T10:22:41;4.07;;;2.38;;
74543;SDS011;63016;55.030;38.710;2023-06-22T10:25:08;9.57;;;2.53;;
74543;SDS011;63016;55.030;38.710;2023-06-22T10:27:34;4.25;;;2.08;;
74543;SDS011;63016;55.030;38.710;2023-06-22T10:30:00;5.97;;;2.03;;
74543;SDS011;63016;55.030;38.710;2023-06-22T10:32:26;8.57;;;2.45;;
74543;SDS011;63016;55.030;38.710;2023-06-22T10:34:53;6.28;;;2.00;;
74543;SDS011;63016;55.030;38.710;2023-06-22T10:37:19;4.93;;;1.98;;
74543;SDS011;63016;55.030;38.710;2023-06-22T10:39:44;4.13;;;1.90;;
74543;SDS011;63016;55.030;38.710;2023-06-22T10:44:54;6.68;;;2.30;;
74543;SDS011;63016;55.030;38.710;2023-06-22T10:47:20;5.32;;;2.10;;
74543;SDS011;63016;55.030;38.710;2023-06-22T10:49:45;4.40;;;1.98;;
74543;SDS011;63016;55.030;38.710;2023-06-22T10:52:11;6.68;;;2.20;;
74543;SDS011;63016;55.030;38.710;2023-06-22T10:54:37;2.97;;;2.05;;
74543;SDS011;63016;55.030;38.710;2023-06-22T10:57:03;6.40;;;2.13;;
74543;SDS011;63016;55.030;38.710;2023-06-22T11:02:33;4.72;;;1.98;;
74543;SDS011;63016;55.030;38.710;2023-06-22T11:05:17;5.18;;;2.33;;
74543;SDS011;63016;55.030;38.710;2023-06-22T11:07:43;6.80;;;2.13;;
74543;SDS011;63016;55.030;38.710;2023-06-22T11:10:09;5.55;;;2.20;;
74543;SDS011;63016;55.030;38.710;2023-06-22T11:12:35;3.00;;;2.42;;
74543;SDS011;63016;55.030;38.710;2023-06-22T11:15:01;2.25;;;1.90;;
74543;SDS011;63016;55.030;38.710;2023-06-22T11:17:26;2.67;;;2.08;;
74543;SDS011;63016;55.030;38.710;2023-06-22T11:19:52;3.05;;;1.83;;
74543;SDS011;63016;55.030;38.710;2023-06-22T11:22:17;3.22;;;2.10;;
74543;SDS011;63016;55.030;38.710;2023-06-22T11:24:43;2.22;;;1.88;;
74543;SDS011;63016;55.030;38.710;2023-06-22T11:27:08;4.55;;;2.28;;
74543;SDS011;63016;55.030;38.710;2023-06-22T11:35:39;3.53;;;2.00;;
74543;SDS011;63016;55.030;38.710;2023-06-22T11:38:05;2.80;;;2.13;;
74543;SDS011;63016;55.030;38.710;2023-06-22T11:40:30;9.15;;;4.88;;
74543;SDS011;63016;55.030;38.710;2023-06-22T11:42:56;4.43;;;2.80;;
74543;SDS011;63016;55.030;38.710;2023-06-22T11:45:21;3.67;;;2.22;;
74543;SDS011;63016;55.030;38.710;2023-06-22T11:47:47;2.42;;;2.10;;
74543;SDS011;63016;55.030;38.710;2023-06-22T11:50:12;2.97;;;2.42;;
74543;SDS011;63016;55.030;38.710;2023-06-22T11:52:57;4.25;;;2.58;;
74543;SDS011;63016;55.030;38.710;2023-06-22T11:55:22;3.33;;;2.40;;
74543;SDS011;63016;55.030;38.710;2023-06-22T11:57:53;4.20;;;2.15;;
74543;SDS011;63016;55.030;38.710;2023-06-22T12:00:20;2.80;;;2.05;;
74543;SDS011;63016;55.030;38.710;2023-06-22T12:02:48;4.25;;;2.38;;
74543;SDS011;63016;55.030;38.710;2023-06-22T12:05:14;4.55;;;3.05;;
74543;SDS011;63016;55.030;38.710;2023-06-22T12:07:58;3.00;;;2.40;;
74543;SDS011;63016;55.030;38.710;2023-06-22T12:10:24;6.32;;;4.13;;
74543;SDS011;63016;55.030;38.710;2023-06-22T12:12:50;4.13;;;2.97;;
74543;SDS011;63016;55.030;38.710;2023-06-22T12:15:16;5.45;;;2.38;;
74543;SDS011;63016;55.030;38.710;2023-06-22T12:17:41;2.70;;;2.05;;
74543;SDS011;63016;55.030;38.710;2023-06-22T12:20:07;3.75;;;2.20;;
74543;SDS011;63016;55.030;38.710;2023-06-22T12:22:33;5.78;;;2.00;;
74543;SDS011;63016;55.030;38.710;2023-06-22T12:24:59;4.65;;;3.97;;
74543;SDS011;63016;55.030;38.710;2023-06-22T12:27:25;4.60;;;3.10;;
74543;SDS011;63016;55.030;38.710;2023-06-22T12:29:51;5.90;;;2.40;;
74543;SDS011;63016;55.030;38.710;2023-06-22T12:32:35;3.03;;;2.03;;
74543;SDS011;63016;55.030;38.710;2023-06-22T12:35:19;4.57;;;2.05;;
74543;SDS011;63016;55.030;38.710;2023-06-22T12:37:44;4.70;;;3.72;;
74543;SDS011;63016;55.030;38.710;2023-06-22T12:40:28;3.15;;;1.90;;
74543;SDS011;63016;55.030;38.710;2023-06-22T12:42:54;6.03;;;2.80;;
74543;SDS011;63016;55.030;38.710;2023-06-22T12:45:19;5.85;;;2.17;;
74543;SDS011;63016;55.030;38.710;2023-06-22T12:50:47;4.13;;;2.15;;
74543;SDS011;63016;55.030;38.710;2023-06-22T12:53:13;2.20;;;2.00;;
74543;SDS011;63016;55.030;38.710;2023-06-22T12:55:38;3.85;;;2.35;;
74543;SDS011;63016;55.030;38.710;2023-06-22T12:58:22;5.82;;;2.30;;
74543;SDS011;63016;55.030;38.710;2023-06-22T13:00:48;3.20;;;2.05;;
74543;SDS011;63016;55.030;38.710;2023-06-22T13:05:58;5.00;;;2.35;;
74543;SDS011;63016;55.030;38.710;2023-06-22T13:08:23;6.15;;;2.53;;
74543;SDS011;63016;55.030;38.710;2023-06-22T13:10:49;6.88;;;2.67;;
74543;SDS011;63016;55.030;38.710;2023-06-22T13:13:14;3.85;;;2.10;;
74543;SDS011;63016;55.030;38.710;2023-06-22T13:15:40;10.45;;;2.50;;
74543;SDS011;63016;55.030;38.710;2023-06-22T13:18:05;3.70;;;2.30;;
74543;SDS011;63016;55.030;38.710;2023-06-22T13:20:49;2.63;;;2.20;;
74543;SDS011;63016;55.030;38.710;2023-06-22T13:23:15;5.85;;;2.58;;
74543;SDS011;63016;55.030;38.710;2023-06-22T13:25:59;6.00;;;2.67;;
74543;SDS011;63016;55.030;38.710;2023-06-22T13:28:25;4.97;;;1.98;;
74543;SDS011;63016;55.030;38.710;2023-06-22T13:31:09;2.85;;;2.60;;
74543;SDS011;63016;55.030;38.710;2023-06-22T13:33:34;4.50;;;2.42;;
74543;SDS011;63016;55.030;38.710;2023-06-22T13:36:00;4.43;;;2.80;;
74543;SDS011;63016;55.030;38.710;2023-06-22T13:38:28;4.05;;;2.45;;
74543;SDS011;63016;55.030;38.710;2023-06-22T13:40:54;3.58;;;2.40;;
74543;SDS011;63016;55.030;38.710;2023-06-22T13:43:22;5.80;;;2.40;;
74543;SDS011;63016;55.030;38.710;2023-06-22T13:46:06;4.07;;;2.63;;
74543;SDS011;63016;55.030;38.710;2023-06-22T13:48:32;6.25;;;2.53;;
74543;SDS011;63016;55.030;38.710;2023-06-22T13:50:58;6.25;;;2.72;;
74543;SDS011;63016;55.030;38.710;2023-06-22T13:53:42;3.55;;;2.38;;
74543;SDS011;63016;55.030;38.710;2023-06-22T13:56:08;8.57;;;2.40;;
74543;SDS011;63016;55.030;38.710;2023-06-22T14:01:17;11.27;;;3.10;;
74543;SDS011;63016;55.030;38.710;2023-06-22T14:03:43;5.97;;;2.80;;
74543;SDS011;63016;55.030;38.710;2023-06-22T14:06:27;3.83;;;2.83;;
74543;SDS011;63016;55.030;38.710;2023-06-22T14:09:11;4.60;;;2.58;;
74543;SDS011;63016;55.030;38.710;2023-06-22T14:11:37;5.25;;;2.58;;
74543;SDS011;63016;55.030;38.710;2023-06-22T14:14:02;7.82;;;2.50;;
74543;SDS011;63016;55.030;38.710;2023-06-22T14:16:28;9.23;;;2.55;;
74543;SDS011;63016;55.030;38.710;2023-06-22T14:18:53;2.80;;;2.47;;
74543;SDS011;63016;55.030;38.710;2023-06-22T14:21:37;6.72;;;3.00;;
74543;SDS011;63016;55.030;38.710;2023-06-22T14:24:03;3.42;;;2.53;;
74543;SDS011;63016;55.030;38.710;2023-06-22T14:26:28;5.72;;;2.90;;
74543;SDS011;63016;55.030;38.710;2023-06-22T14:28:54;4.53;;;2.40;;
74543;SDS011;63016;55.030;38.710;2023-06-22T14:31:19;4.05;;;2.55;;
74543;SDS011;63016;55.030;38.710;2023-06-22T14:33:46;8.77;;;2.72;;
74543;SDS011;63016;55.030;38.710;2023-06-22T14:36:13;5.82;;;2.50;;
74543;SDS011;63016;55.030;38.710;2023-06-22T14:38:38;6.68;;;2.50;;
74543;SDS011;63016;55.030;38.710;2023-06-22T14:41:04;4.03;;;2.65;;
74543;SDS011;63016;55.030;38.710;2023-06-22T14:43:30;9.27;;;2.80;;
74543;SDS011;63016;55.030;38.710;2023-06-22T14:45:55;4.88;;;2.83;;
74543;SDS011;63016;55.030;38.710;2023-06-22T14:48:20;4.38;;;2.63;;
74543;SDS011;63016;55.030;38.710;2023-06-22T14:51:04;3.72;;;2.55;;
74543;SDS011;63016;55.030;38.710;2023-06-22T14:53:30;4.40;;;2.83;;
74543;SDS011;63016;55.030;38.710;2023-06-22T14:55:55;4.13;;;2.38;;
74543;SDS011;63016;55.030;38.710;2023-06-22T14:58:21;4.85;;;2.80;;
74543;SDS011;63016;55.030;38.710;2023-06-22T15:00:46;3.47;;;2.30;;
74543;SDS011;63016;55.030;38.710;2023-06-22T15:03:12;3.30;;;2.72;;
74543;SDS011;63016;55.030;38.710;2023-06-22T15:05:42;4.50;;;2.35;;
74543;SDS011;63016;55.030;38.710;2023-06-22T15:08:08;3.80;;;2.55;;
74543;SDS011;63016;55.030;38.710;2023-06-22T15:10:34;2.97;;;2.30;;
74543;SDS011;63016;55.030;38.710;2023-06-22T15:15:47;6.00;;;3.00;;
74543;SDS011;63016;55.030;38.710;2023-06-22T15:21:16;6.18;;;2.85;;
74543;SDS011;63016;55.030;38.710;2023-06-22T15:23:42;6.72;;;2.72;;
74543;SDS011;63016;55.030;38.710;2023-06-22T15:26:07;5.30;;;3.13;;